createdAt,value
2022-10-15T00:01:23.695Z,27.93
2022-10-15T00:03:50.979Z,24.17
2022-10-15T00:06:21.492Z,23.60
2022-10-15T00:08:49.073Z,26.30
2022-10-15T00:11:25.894Z,23.57
2022-10-15T00:13:56.570Z,28.63
2022-10-15T00:16:27.753Z,28.27
2022-10-15T00:18:59.536Z,24.20
2022-10-15T00:21:26.631Z,22.83
2022-10-15T00:23:53.634Z,34.33
2022-10-15T00:26:25.469Z,28.67
2022-10-15T00:28:55.741Z,28.53
2022-10-15T00:31:24.451Z,28.97
2022-10-15T00:33:54.685Z,38.83
2022-10-15T00:36:29.730Z,30.50
2022-10-15T00:38:57.653Z,30.27
2022-10-15T00:41:36.253Z,25.70
2022-10-15T00:44:25.733Z,33.33
2022-10-15T00:47:16.539Z,31.77
2022-10-15T00:50:09.043Z,43.30
2022-10-15T00:53:08.930Z,36.90
2022-10-15T00:55:43.086Z,23.53
2022-10-15T00:58:28.555Z,31.23
2022-10-15T01:00:56.261Z,31.23
2022-10-15T01:03:24.691Z,40.30
2022-10-15T01:06:06.175Z,39.50
2022-10-15T01:08:34.868Z,25.83
2022-10-15T01:11:34.280Z,32.13
2022-10-15T01:14:59.528Z,33.83
2022-10-15T01:17:45.075Z,29.73
2022-10-15T01:20:52.109Z,42.13
2022-10-15T01:24:38.367Z,35.30
2022-10-15T01:27:35.939Z,45.73
2022-10-15T01:30:25.581Z,36.67
2022-10-15T01:33:26.387Z,35.00
2022-10-15T01:36:24.460Z,40.70
2022-10-15T01:39:33.617Z,44.17
2022-10-15T01:42:21.264Z,39.27
2022-10-15T01:45:03.107Z,45.80
2022-10-15T01:47:48.531Z,30.77
2022-10-15T01:50:18.353Z,41.00
2022-10-15T01:52:46.173Z,48.77
2022-10-15T01:55:16.279Z,39.57
2022-10-15T01:57:46.125Z,22.30
2022-10-15T02:00:13.976Z,24.23
2022-10-15T02:02:41.458Z,35.00
2022-10-15T02:05:19.700Z,29.37
2022-10-15T02:08:48.053Z,32.57
2022-10-15T02:11:19.783Z,41.87
2022-10-15T02:14:10.423Z,26.60
2022-10-15T02:16:59.495Z,37.30
2022-10-15T02:22:53.165Z,27.83
2022-10-15T02:25:25.715Z,37.20
2022-10-15T02:27:56.928Z,28.50
2022-10-15T02:30:26.271Z,27.67
2022-10-15T02:32:58.337Z,31.97
2022-10-15T02:35:27.930Z,34.80
2022-10-15T02:37:59.575Z,34.70
2022-10-15T02:40:31.072Z,33.20
2022-10-15T02:43:00.405Z,31.40
2022-10-15T02:45:27.445Z,22.83
2022-10-15T02:47:54.385Z,28.03
2022-10-15T02:50:21.318Z,33.40
2022-10-15T02:52:48.253Z,36.50
2022-10-15T02:55:15.602Z,24.63
2022-10-15T02:57:42.528Z,38.07
2022-10-15T03:00:10.839Z,24.93
2022-10-15T03:02:41.350Z,33.63
2022-10-15T03:05:09.304Z,30.53
2022-10-15T03:07:37.201Z,33.27
2022-10-15T03:10:06.005Z,40.03
2022-10-15T03:12:33.400Z,34.37
2022-10-15T03:15:00.588Z,27.10
2022-10-15T03:17:27.771Z,31.23
2022-10-15T03:19:54.688Z,33.13
2022-10-15T03:22:21.671Z,34.10
2022-10-15T03:24:48.632Z,32.00
2022-10-15T03:27:15.588Z,31.63
2022-10-15T03:29:42.528Z,28.43
2022-10-15T03:32:09.507Z,28.50
2022-10-15T03:34:36.532Z,38.13
2022-10-15T03:37:03.495Z,31.13
2022-10-15T03:39:30.488Z,32.47
2022-10-15T03:41:57.544Z,31.83
2022-10-15T03:44:24.467Z,35.90
2022-10-15T03:46:51.757Z,36.93
2022-10-15T03:49:18.656Z,36.37
2022-10-15T03:51:45.632Z,42.37
2022-10-15T03:54:13.641Z,35.00
2022-10-15T03:56:40.607Z,42.67
2022-10-15T03:59:07.529Z,41.67
2022-10-15T04:01:34.523Z,43.30
2022-10-15T04:04:01.550Z,37.77
2022-10-15T04:06:28.538Z,43.07
2022-10-15T04:08:55.561Z,37.53
2022-10-15T04:11:22.583Z,24.80
2022-10-15T04:13:51.006Z,33.83
2022-10-15T04:16:18.575Z,35.83
2022-10-15T04:18:45.614Z,34.30
2022-10-15T04:21:12.630Z,22.23
2022-10-15T04:23:39.689Z,30.07
2022-10-15T04:26:07.074Z,39.63
2022-10-15T04:28:34.295Z,32.00
2022-10-15T04:31:02.622Z,36.13
2022-10-15T04:33:29.624Z,32.60
2022-10-15T04:36:08.337Z,31.37
2022-10-15T04:38:35.399Z,33.97
2022-10-15T04:41:10.073Z,24.20
2022-10-15T04:43:38.483Z,36.30
2022-10-15T04:46:08.176Z,23.90
2022-10-15T04:48:42.021Z,31.53
2022-10-15T04:51:18.810Z,35.43
2022-10-15T04:53:46.036Z,37.47
2022-10-15T04:56:17.897Z,34.13
2022-10-15T04:58:47.667Z,31.80
2022-10-15T05:01:19.338Z,37.20
2022-10-15T05:03:48.541Z,35.00
2022-10-15T05:06:21.607Z,32.10
2022-10-15T05:08:50.263Z,20.33
2022-10-15T05:11:26.884Z,33.23
2022-10-15T05:13:57.778Z,31.53
2022-10-15T05:16:29.147Z,34.67
2022-10-15T05:19:01.585Z,28.43
2022-10-15T05:21:31.072Z,32.67
2022-10-15T05:23:59.578Z,33.27
2022-10-15T05:26:29.568Z,34.50
2022-10-15T05:28:58.834Z,33.53
2022-10-15T05:31:30.177Z,31.67
2022-10-15T05:33:57.387Z,39.27
2022-10-15T05:36:28.392Z,32.43
2022-10-15T05:39:00.120Z,27.47
2022-10-15T05:41:29.320Z,33.43
2022-10-15T05:43:58.621Z,30.73
2022-10-15T05:46:26.337Z,29.83
2022-10-15T05:48:56.530Z,37.80
2022-10-15T05:51:26.487Z,37.83
2022-10-15T05:53:56.142Z,37.33
2022-10-15T05:56:23.878Z,29.53
2022-10-15T05:58:51.950Z,35.17
2022-10-15T06:01:20.093Z,36.80
2022-10-15T06:03:47.154Z,30.40
2022-10-15T06:06:26.477Z,31.53
2022-10-15T06:08:54.852Z,26.33
2022-10-15T06:11:22.703Z,31.30
2022-10-15T06:13:49.713Z,23.67
2022-10-15T06:16:21.148Z,31.03
2022-10-15T06:18:53.504Z,29.10
2022-10-15T06:21:20.913Z,24.40
2022-10-15T06:23:47.945Z,24.93
2022-10-15T06:26:14.859Z,27.27
2022-10-15T06:28:41.857Z,33.27
2022-10-15T06:31:09.185Z,26.07
2022-10-15T06:33:36.515Z,28.63
2022-10-15T06:36:10.537Z,26.83
2022-10-15T06:38:40.298Z,25.97
2022-10-15T06:41:08.324Z,31.53
2022-10-15T06:43:36.072Z,21.13
2022-10-15T06:46:05.592Z,30.70
2022-10-15T06:48:34.094Z,31.83
2022-10-15T06:51:02.479Z,25.70
2022-10-15T06:53:30.682Z,23.20
2022-10-15T06:56:02.838Z,25.60
2022-10-15T06:58:30.518Z,20.67
2022-10-15T07:01:03.236Z,26.87
2022-10-15T07:03:30.407Z,29.40
2022-10-15T07:06:03.619Z,25.53
2022-10-15T07:08:30.592Z,21.63
2022-10-15T07:10:57.511Z,24.00
2022-10-15T07:13:24.528Z,27.90
2022-10-15T07:15:54.006Z,21.07
2022-10-15T07:18:20.993Z,20.87
2022-10-15T07:20:48.045Z,21.73
2022-10-15T07:23:14.965Z,21.27
2022-10-15T07:25:41.911Z,18.17
2022-10-15T07:28:08.826Z,18.17
2022-10-15T07:30:35.893Z,21.97
2022-10-15T07:33:02.863Z,20.43
2022-10-15T07:35:29.906Z,20.47
2022-10-15T07:37:59.926Z,20.10
2022-10-15T07:40:26.851Z,21.20
2022-10-15T07:42:56.223Z,19.37
2022-10-15T07:45:24.578Z,21.90
2022-10-15T07:47:52.089Z,20.93
2022-10-15T07:50:21.246Z,20.57
2022-10-15T07:52:48.262Z,16.03
2022-10-15T07:55:15.211Z,18.87
2022-10-15T07:57:42.224Z,18.43
2022-10-15T08:00:10.281Z,15.50
2022-10-15T08:02:37.247Z,16.93
2022-10-15T08:05:04.753Z,18.17
2022-10-15T08:07:31.661Z,18.40
2022-10-15T08:09:58.625Z,15.17
2022-10-15T08:12:25.879Z,17.97
2022-10-15T08:14:53.307Z,18.70
2022-10-15T08:17:20.355Z,13.30
2022-10-15T08:19:47.894Z,16.20
2022-10-15T08:22:14.922Z,15.67
2022-10-15T08:24:41.857Z,14.37
2022-10-15T08:27:08.926Z,15.77
2022-10-15T08:29:35.860Z,15.87
2022-10-15T08:32:02.837Z,18.77
2022-10-15T08:34:29.775Z,19.00
2022-10-15T08:36:56.688Z,13.52
2022-10-15T08:39:23.839Z,17.40
2022-10-15T08:41:57.853Z,14.73
2022-10-15T08:44:50.233Z,15.60
2022-10-15T08:48:00.149Z,23.20
2022-10-15T08:50:43.236Z,19.27
2022-10-15T08:53:23.263Z,39.47
2022-10-15T08:55:57.117Z,16.97
2022-10-15T08:59:17.945Z,16.27
2022-10-15T09:01:58.420Z,189.40
2022-10-15T09:04:34.145Z,39.37
2022-10-15T09:07:23.917Z,15.67
2022-10-15T09:10:22.126Z,21.60
2022-10-15T09:13:04.662Z,15.80
2022-10-15T09:16:01.319Z,16.98
2022-10-15T09:18:33.625Z,15.88
2022-10-15T09:21:04.455Z,23.48
2022-10-15T09:23:35.411Z,19.40
2022-10-15T09:26:28.350Z,14.77
2022-10-15T09:29:22.355Z,17.80
2022-10-15T09:32:13.438Z,19.25
2022-10-15T09:35:00.458Z,13.60
2022-10-15T09:37:53.422Z,12.02
2022-10-15T09:40:49.208Z,16.38
2022-10-15T09:43:32.018Z,15.00
2022-10-15T09:46:01.534Z,14.18
2022-10-15T09:48:39.541Z,14.95
2022-10-15T09:51:46.505Z,17.35
2022-10-15T09:54:45.623Z,15.25
2022-10-15T09:57:15.276Z,14.65
2022-10-15T10:00:01.133Z,13.93
2022-10-15T10:02:29.669Z,11.77
2022-10-15T10:04:57.264Z,16.13
2022-10-15T10:07:39.796Z,12.38
2022-10-15T10:10:32.632Z,12.60
2022-10-15T10:12:59.783Z,11.35
2022-10-15T10:15:35.710Z,12.48
2022-10-15T10:18:06.663Z,13.35
2022-10-15T10:20:34.828Z,15.90
2022-10-15T10:23:24.352Z,11.25
2022-10-15T10:25:52.219Z,10.77
2022-10-15T10:28:44.838Z,10.57
2022-10-15T10:31:13.098Z,10.18
2022-10-15T10:33:40.378Z,10.02
2022-10-15T10:36:40.666Z,8.65
2022-10-15T10:39:14.240Z,11.13
2022-10-15T10:41:53.085Z,12.05
2022-10-15T10:44:48.213Z,11.57
2022-10-15T10:47:24.539Z,11.82
2022-10-15T10:49:57.405Z,12.02
2022-10-15T10:52:36.719Z,9.30
2022-10-15T10:55:25.192Z,10.13
2022-10-15T10:58:04.561Z,10.85
2022-10-15T11:01:03.060Z,11.52
2022-10-15T11:03:44.007Z,9.57
2022-10-15T11:06:45.248Z,9.45
2022-10-15T11:10:11.410Z,11.45
2022-10-15T11:13:35.027Z,10.23
2022-10-15T11:16:31.133Z,18.15
2022-10-15T11:20:00.055Z,12.65
2022-10-15T11:23:27.780Z,9.93
2022-10-15T11:26:25.042Z,16.88
2022-10-15T11:29:29.400Z,14.43
2022-10-15T11:32:47.767Z,9.48
2022-10-15T11:35:52.367Z,10.85
2022-10-15T11:38:42.356Z,7.43
2022-10-15T11:41:29.537Z,9.35
2022-10-15T11:44:31.086Z,12.13
2022-10-15T11:47:53.930Z,7.60
2022-10-15T11:50:45.025Z,8.75
2022-10-15T11:53:39.567Z,6.28
2022-10-15T11:56:38.736Z,7.65
2022-10-15T11:59:39.915Z,10.10
2022-10-15T12:02:30.781Z,8.30
2022-10-15T12:05:10.102Z,11.13
2022-10-15T12:07:46.760Z,8.45
2022-10-15T12:10:13.803Z,7.75
2022-10-15T12:13:05.522Z,8.30
2022-10-15T12:16:08.931Z,7.63
2022-10-15T12:18:55.610Z,8.13
2022-10-15T12:22:11.562Z,7.97
2022-10-15T12:24:38.495Z,6.50
2022-10-15T12:27:20.634Z,6.25
2022-10-15T12:30:20.801Z,8.02
2022-10-15T12:32:48.967Z,5.57
2022-10-15T12:35:15.934Z,6.68
2022-10-15T12:37:46.992Z,8.20
2022-10-15T12:40:30.294Z,5.57
2022-10-15T12:43:12.567Z,6.65
2022-10-15T12:45:51.221Z,4.35
2022-10-15T12:48:31.511Z,4.10
2022-10-15T12:51:31.548Z,5.15
2022-10-15T12:54:35.489Z,5.70
2022-10-15T12:57:36.202Z,5.35
2022-10-15T13:00:26.055Z,5.32
2022-10-15T13:02:56.092Z,5.45
2022-10-15T13:05:33.400Z,6.53
2022-10-15T13:08:05.282Z,4.75
2022-10-15T13:10:47.429Z,5.22
2022-10-15T13:13:23.559Z,10.52
2022-10-15T13:15:58.497Z,4.18
2022-10-15T13:18:28.947Z,14.00
2022-10-15T13:20:56.897Z,9.18
2022-10-15T13:23:35.717Z,2.40
2022-10-15T13:26:27.073Z,7.35
2022-10-15T13:28:58.442Z,4.80
2022-10-15T13:31:35.080Z,4.15
2022-10-15T13:34:35.522Z,3.88
2022-10-15T13:37:04.640Z,13.55
2022-10-15T13:39:40.084Z,6.20
2022-10-15T13:42:18.539Z,5.10
2022-10-15T13:45:12.136Z,3.95
2022-10-15T13:47:47.209Z,2.40
2022-10-15T13:50:27.058Z,10.10
2022-10-15T13:53:09.513Z,2.75
2022-10-15T13:55:48.297Z,4.07
2022-10-15T13:58:34.976Z,3.47
2022-10-15T14:01:23.683Z,4.25
2022-10-15T14:04:00.707Z,4.85
2022-10-15T14:06:38.224Z,4.00
2022-10-15T14:09:28.375Z,3.25
2022-10-15T14:12:00.565Z,3.47
2022-10-15T14:14:41.276Z,1.60
2022-10-15T14:17:17.455Z,4.95
2022-10-15T14:20:22.099Z,1.85
2022-10-15T14:22:49.461Z,6.18
2022-10-15T14:25:27.371Z,5.53
2022-10-15T14:27:54.791Z,4.22
2022-10-15T14:30:34.286Z,2.88
2022-10-15T14:33:01.237Z,2.47
2022-10-15T14:35:37.396Z,2.47
2022-10-15T14:38:16.968Z,6.30
2022-10-15T14:41:07.717Z,3.20
2022-10-15T14:43:37.295Z,2.47
2022-10-15T14:46:11.600Z,2.45
2022-10-15T14:48:42.886Z,1.52
2022-10-15T14:51:34.524Z,3.85
2022-10-15T14:54:01.816Z,5.25
2022-10-15T14:56:33.348Z,3.20
2022-10-15T14:59:01.172Z,2.38
2022-10-15T15:01:30.613Z,4.65
2022-10-15T15:03:57.672Z,3.97
2022-10-15T15:06:25.070Z,2.00
2022-10-15T15:08:52.867Z,5.25
2022-10-15T15:11:25.280Z,2.00
2022-10-15T15:13:53.173Z,2.13
2022-10-15T15:16:20.654Z,11.70
2022-10-15T15:18:48.829Z,2.05
2022-10-15T15:21:22.321Z,2.67
2022-10-15T15:23:50.419Z,2.33
2022-10-15T15:26:17.434Z,4.65
2022-10-15T15:28:44.501Z,8.65
2022-10-15T15:31:18.705Z,3.38
2022-10-15T15:33:48.557Z,2.95
2022-10-15T15:36:21.003Z,2.63
2022-10-15T15:38:51.055Z,2.75
2022-10-15T15:41:22.652Z,4.20
2022-10-15T15:43:50.584Z,2.88
2022-10-15T15:46:18.250Z,5.47
2022-10-15T15:48:47.561Z,9.73
2022-10-15T15:51:26.322Z,6.20
2022-10-15T15:53:53.435Z,5.90
2022-10-15T15:56:21.015Z,5.18
2022-10-15T15:58:50.170Z,16.20
2022-10-15T16:01:18.907Z,15.52
2022-10-15T16:03:46.079Z,6.18
2022-10-15T16:06:13.725Z,7.40
2022-10-15T16:08:40.914Z,14.85
2022-10-15T16:11:07.888Z,9.17
2022-10-15T16:13:35.239Z,12.38
2022-10-15T16:16:02.502Z,25.83
2022-10-15T16:18:29.603Z,6.57
2022-10-15T16:20:56.977Z,3.42
2022-10-15T16:23:23.921Z,6.80
2022-10-15T16:25:50.929Z,4.22
2022-10-15T16:28:18.533Z,12.50
2022-10-15T16:30:45.495Z,12.13
2022-10-15T16:33:12.750Z,14.67
2022-10-15T16:35:39.699Z,4.87
2022-10-15T16:38:06.738Z,13.87
2022-10-15T16:40:34.553Z,10.33
2022-10-15T16:43:01.596Z,10.30
2022-10-15T16:45:31.921Z,17.43
2022-10-15T16:47:59.053Z,21.50
2022-10-15T16:50:26.015Z,28.13
2022-10-15T16:52:53.307Z,14.10
2022-10-15T16:55:20.323Z,22.13
2022-10-15T16:57:47.241Z,21.13
2022-10-15T17:00:14.482Z,16.57
2022-10-15T17:02:41.422Z,7.70
2022-10-15T17:05:08.838Z,6.60
2022-10-15T17:07:36.066Z,9.67
2022-10-15T17:10:03.446Z,9.73
2022-10-15T17:12:30.461Z,11.83
2022-10-15T17:14:57.394Z,13.30
2022-10-15T17:17:24.354Z,12.17
2022-10-15T17:19:51.312Z,12.60
2022-10-15T17:22:18.652Z,12.50
2022-10-15T17:24:45.630Z,25.40
2022-10-15T17:27:12.576Z,17.33
2022-10-15T17:29:39.665Z,24.53
2022-10-15T17:32:06.629Z,9.93
2022-10-15T17:34:34.196Z,17.87
2022-10-15T17:37:02.021Z,18.80
2022-10-15T17:39:29.002Z,16.00
2022-10-15T17:41:55.950Z,9.00
2022-10-15T17:44:22.962Z,16.30
2022-10-15T17:46:53.117Z,16.07
2022-10-15T17:49:22.356Z,17.23
2022-10-15T17:51:49.289Z,17.20
2022-10-15T17:54:16.862Z,13.97
2022-10-15T17:56:44.254Z,27.80
2022-10-15T17:59:12.744Z,13.67
2022-10-15T18:01:59.843Z,17.17
2022-10-15T18:04:29.722Z,24.20
2022-10-15T18:06:57.024Z,13.70
2022-10-15T18:09:26.672Z,15.10
2022-10-15T18:11:53.644Z,10.70
2022-10-15T18:16:53.365Z,18.47
2022-10-15T18:19:20.633Z,21.37
2022-10-15T18:21:49.506Z,23.60
2022-10-15T18:24:21.371Z,12.53
2022-10-15T18:26:50.581Z,18.23
2022-10-15T18:29:17.685Z,20.07
2022-10-15T18:31:44.921Z,18.10
2022-10-15T18:34:11.942Z,19.10
2022-10-15T18:36:41.560Z,22.83
2022-10-15T18:39:09.502Z,17.43
2022-10-15T18:41:38.349Z,19.43
2022-10-15T18:44:18.282Z,15.00
2022-10-15T18:46:45.876Z,26.23
2022-10-15T18:49:16.913Z,17.07
2022-10-15T18:51:46.457Z,20.43
2022-10-15T18:54:14.444Z,16.33
2022-10-15T18:56:41.734Z,17.67
2022-10-15T18:59:08.820Z,14.40
2022-10-15T19:01:41.824Z,11.93
2022-10-15T19:04:18.738Z,10.03
2022-10-15T19:06:49.757Z,12.77
2022-10-15T19:09:26.250Z,11.80
2022-10-15T19:11:56.445Z,14.67
2022-10-15T19:14:28.096Z,13.73
2022-10-15T19:16:56.585Z,13.83
2022-10-15T19:19:25.104Z,14.43
2022-10-15T19:21:53.261Z,8.83
2022-10-15T19:24:21.811Z,11.37
2022-10-15T19:26:51.684Z,13.63
2022-10-15T19:29:20.178Z,19.10
2022-10-15T19:31:49.065Z,14.27
2022-10-15T19:34:16.345Z,18.73
2022-10-15T19:36:48.264Z,9.90
2022-10-15T19:39:21.339Z,10.77
2022-10-15T19:41:50.603Z,12.17
2022-10-15T19:44:24.704Z,12.77
2022-10-15T19:46:55.316Z,12.10
2022-10-15T19:49:22.922Z,8.83
2022-10-15T19:51:52.385Z,12.33
2022-10-15T19:54:19.419Z,9.00
2022-10-15T19:56:46.596Z,8.13
2022-10-15T19:59:14.451Z,8.70
2022-10-15T20:01:41.503Z,8.47
2022-10-15T20:04:08.649Z,10.03
2022-10-15T20:06:38.454Z,9.27
2022-10-15T20:09:07.167Z,17.83
2022-10-15T20:11:34.779Z,11.70
2022-10-15T20:14:02.508Z,9.43
2022-10-15T20:16:32.921Z,13.00
2022-10-15T20:19:04.180Z,12.17
2022-10-15T20:21:32.111Z,7.97
2022-10-15T20:23:59.857Z,8.03
2022-10-15T20:26:27.093Z,8.90
2022-10-15T20:28:54.201Z,7.47
2022-10-15T20:31:21.821Z,13.93
2022-10-15T20:33:48.823Z,6.67
2022-10-15T20:36:23.465Z,6.33
2022-10-15T20:38:59.286Z,9.20
2022-10-15T20:41:26.190Z,7.50
2022-10-15T20:43:56.612Z,6.77
2022-10-15T20:46:38.686Z,7.27
2022-10-15T20:49:15.337Z,9.40
2022-10-15T20:51:44.292Z,8.33
2022-10-15T20:54:14.139Z,6.17
2022-10-15T20:56:42.499Z,11.80
2022-10-15T20:59:09.869Z,12.87
2022-10-15T21:01:37.271Z,10.63
2022-10-15T21:04:05.211Z,8.43
2022-10-15T21:06:32.487Z,9.20
2022-10-15T21:08:59.472Z,6.43
2022-10-15T21:11:26.402Z,7.27
2022-10-15T21:13:53.986Z,6.13
2022-10-15T21:16:24.493Z,4.37
2022-10-15T21:18:54.671Z,9.10
2022-10-15T21:21:21.686Z,6.83
2022-10-15T21:23:48.645Z,4.20
2022-10-15T21:26:18.839Z,12.07
2022-10-15T21:28:46.290Z,15.27
2022-10-15T21:31:17.367Z,8.43
2022-10-15T21:33:44.978Z,8.73
2022-10-15T21:36:21.562Z,7.87
2022-10-15T21:39:03.589Z,18.37
2022-10-15T21:41:33.401Z,17.03
2022-10-15T21:44:02.433Z,9.60
2022-10-15T21:46:33.135Z,14.60
2022-10-15T21:49:01.558Z,5.10
2022-10-15T21:51:33.165Z,20.77
2022-10-15T21:54:01.819Z,5.07
2022-10-15T21:56:34.930Z,5.50
2022-10-15T21:59:02.348Z,9.93
2022-10-15T22:01:35.936Z,4.17
2022-10-15T22:04:07.989Z,5.70
2022-10-15T22:06:39.803Z,9.53
2022-10-15T22:09:07.806Z,11.07
2022-10-15T22:11:39.359Z,11.30
2022-10-15T22:14:13.602Z,6.77
2022-10-15T22:16:41.854Z,6.40
2022-10-15T22:19:14.055Z,7.77
2022-10-15T22:21:41.242Z,4.77
2022-10-15T22:24:20.519Z,3.30
2022-10-15T22:26:50.969Z,9.80
2022-10-15T22:29:33.025Z,3.37
2022-10-15T22:32:01.508Z,13.60
2022-10-15T22:34:28.489Z,8.07
2022-10-15T22:36:55.451Z,11.97
2022-10-15T22:39:22.382Z,11.37
2022-10-15T22:41:49.455Z,4.60
2022-10-15T22:44:20.760Z,8.07
2022-10-15T22:46:49.438Z,11.27
2022-10-15T22:49:20.287Z,11.53
2022-10-15T22:51:49.322Z,5.23
2022-10-15T22:54:19.979Z,12.80
2022-10-15T22:56:47.254Z,7.80
2022-10-15T22:59:15.379Z,6.57
2022-10-15T23:01:42.658Z,6.53
2022-10-15T23:04:14.870Z,6.13
2022-10-15T23:06:42.428Z,7.33
2022-10-15T23:09:17.188Z,3.10
2022-10-15T23:11:45.012Z,11.87
2022-10-15T23:14:15.282Z,8.03
2022-10-15T23:16:47.828Z,7.40
2022-10-15T23:19:21.801Z,23.70
2022-10-15T23:21:53.206Z,6.17
2022-10-15T23:24:23.692Z,8.03
2022-10-15T23:26:51.486Z,3.30
2022-10-15T23:29:25.111Z,5.47
2022-10-15T23:31:53.620Z,4.93
2022-10-15T23:34:25.373Z,12.83
2022-10-15T23:36:53.073Z,7.17
2022-10-15T23:39:26.758Z,4.30
2022-10-15T23:41:54.834Z,7.00
2022-10-15T23:44:25.484Z,5.90
2022-10-15T23:46:52.855Z,11.53
2022-10-15T23:49:19.849Z,4.93
2022-10-15T23:51:46.815Z,3.37
2022-10-15T23:54:18.062Z,4.10
2022-10-15T23:56:46.704Z,5.77
2022-10-15T23:59:14.461Z,2.77
